CheckWX is a tool to help pilots better visualize weather data.  It is not intended as a substitute for an official pre-flight weather briefing.

05:01:23 UTC

PASY TAF
Eareckson AS Airport
Shemya, Alaska, USA
TAF AMD PASY 170240Z 1702/1804 33020G25KT 9999 FEW011 OVC018 620505 QNH2980INS TEMPO 1702/1705 32015G20KT BKN020 BECMG 1712/1713 32012KT 9999 BKN010 QNH2992INS BECMG 1718/1719 32006KT 8000 BR BKN008 QNH2990INS TX11/1702Z TN08/1718Z

Sep-17@
02:00 UTC

Sep-17 @ 02:00 UTC

Sep-17@
12:00 UTC

Sep-17 @ 12:00 UTC

TAF AMD PASY 170240Z 1702/1804 33020G25KT 9999 FEW011 OVC018 620505 QNH2980INS
Wind
  • 330° at 20 KTS
  • {Gusting to 25 KTS
Cloud Levels
  • Few at 1,100' AGL
  • Overcast at 1,800' AGL
Icing
Light icing in cloud expected at 5,000' AGL extending to 10,000' AGL

Sep-17@
02:00 UTC

Sep-17 @ 02:00 UTC

Sep-17@
05:00 UTC

Sep-17 @ 05:00 UTC

TEMPO 1702/1705 32015G20KT BKN020

Expired

Wind
  • 320° at 15 KTS
  • {Gusting to 20 KTS
Cloud Levels
  • Broken at 2,000' AGL

Sep-17@
12:00 UTC

Sep-17 @ 12:00 UTC

Sep-17@
18:00 UTC

Sep-17 @ 18:00 UTC

BECMG 1712/1713 32012KT 9999 BKN010 QNH2992INS

Becoming

Becoming Conditions expected by Tue, Sep 17, 2019 @ 13:00 UTC

Wind
  • 320° at 12 KTS
Cloud Levels
  • Broken at 1,000' AGL

Sep-17@
18:00 UTC

Sep-17 @ 18:00 UTC

Sep-18@
04:00 UTC

Sep-18 @ 04:00 UTC

BECMG 1718/1719 32006KT 8000 BR BKN008 QNH2990INS TX11/1702Z TN08/1718Z

Becoming

Becoming Conditions expected by Tue, Sep 17, 2019 @ 19:00 UTC

Wind
  • 320° at 6 KTS
Conditions
Mist
Cloud Levels
  • Broken at 800' AGL